Time;durP1;ratioP1;P1;durP2;ratioP2;P2;SDS_P1;SDS_P2;PMS_P1;PMS_P2;Temp;Humidity;BMP_temperature;BMP_pressure;BME280_temperature;BME280_humidity;BME280_pressure;Samples;Min_cycle;Max_cycle;Signal;HPM_P1;HPM_P2
2024/01/08 00:00:22;;;;;;;8.67;5.00;;;-1.40;99.90;;;;;;4959531;28;20049;-74
2024/01/08 00:02:48;;;;;;;7.23;5.10;;;-1.30;99.90;;;;;;4977851;28;20031;-81
2024/01/08 00:05:15;;;;;;;7.67;5.60;;;-1.30;99.90;;;;;;4979067;28;20038;-79
2024/01/08 00:07:41;;;;;;;9.07;5.07;;;-1.40;99.90;;;;;;4961526;28;20045;-81
2024/01/08 00:10:08;;;;;;;8.07;5.43;;;-1.30;99.90;;;;;;4978253;28;20242;-79
2024/01/08 00:12:34;;;;;;;6.53;4.80;;;-1.40;99.90;;;;;;4976960;28;20042;-78
2024/01/08 00:15:01;;;;;;;5.73;4.33;;;-1.40;99.90;;;;;;4994231;28;20038;-82
2024/01/08 00:17:27;;;;;;;7.00;5.10;;;-1.40;99.90;;;;;;4976018;28;20030;-77
2024/01/08 00:19:54;;;;;;;8.20;5.00;;;-1.40;99.90;;;;;;4977656;28;20049;-78
2024/01/08 00:22:20;;;;;;;7.33;4.90;;;-1.40;99.90;;;;;;4976979;28;20041;-80
2024/01/08 00:24:46;;;;;;;8.03;5.53;;;-1.50;99.90;;;;;;4992364;28;20030;-79
2024/01/08 00:27:12;;;;;;;7.33;5.17;;;-1.50;99.90;;;;;;4992684;28;20088;-79
2024/01/08 00:29:39;;;;;;;6.40;4.97;;;-1.60;99.90;;;;;;4975677;28;20053;-78
2024/01/08 00:32:05;;;;;;;8.67;5.53;;;-1.60;99.90;;;;;;4944130;28;20034;-75
2024/01/08 00:34:32;;;;;;;7.00;5.47;;;-1.70;99.90;;;;;;4960514;28;20038;-77
2024/01/08 00:36:58;;;;;;;6.60;5.27;;;-1.80;99.90;;;;;;4974742;28;20031;-81
2024/01/08 00:39:27;;;;;;;9.07;5.17;;;-1.80;99.90;;;;;;4960203;28;20061;-80
2024/01/08 00:41:53;;;;;;;8.60;6.27;;;-1.90;99.90;;;;;;4992729;28;20425;-79
2024/01/08 00:44:20;;;;;;;7.50;5.57;;;-2.00;99.90;;;;;;4977230;28;20447;-79
2024/01/08 00:46:46;;;;;;;7.93;5.37;;;-2.00;99.90;;;;;;4993874;28;20042;-81
2024/01/08 00:49:12;;;;;;;8.27;5.60;;;-2.10;99.90;;;;;;4960690;28;20050;-78
2024/01/08 00:51:39;;;;;;;6.73;5.20;;;-2.10;99.90;;;;;;4977259;28;20057;-80
2024/01/08 00:54:05;;;;;;;9.40;5.50;;;-2.10;99.90;;;;;;4960215;28;20026;-74
2024/01/08 00:56:31;;;;;;;7.10;5.27;;;-2.20;99.90;;;;;;4977589;28;20129;-82
2024/01/08 00:58:58;;;;;;;7.97;5.47;;;-2.30;99.90;;;;;;4977371;28;20043;-77
2024/01/08 01:01:26;;;;;;;7.17;5.30;;;-2.30;99.90;;;;;;4960146;28;20034;-80
2024/01/08 01:03:52;;;;;;;9.63;5.80;;;-2.30;99.90;;;;;;4960451;28;20050;-77
2024/01/08 01:06:21;;;;;;;8.83;5.37;;;-2.30;99.90;;;;;;4978471;28;20579;-80
2024/01/08 01:08:48;;;;;;;7.90;5.60;;;-2.40;99.90;;;;;;4993342;28;20044;-73
2024/01/08 01:11:16;;;;;;;5.77;4.50;;;-2.40;99.90;;;;;;4961288;28;20493;-80
2024/01/08 01:13:42;;;;;;;7.87;4.73;;;-2.50;99.90;;;;;;4981553;28;20034;-82
2024/01/08 01:16:08;;;;;;;7.97;5.03;;;-2.50;99.90;;;;;;4979123;28;20392;-76
2024/01/08 01:18:35;;;;;;;7.97;5.47;;;-2.50;99.90;;;;;;4945070;28;20041;-75
2024/01/08 01:21:02;;;;;;;6.77;4.63;;;-2.50;99.90;;;;;;4976093;28;20062;-81
2024/01/08 01:23:28;;;;;;;7.87;4.90;;;-2.60;99.90;;;;;;4961116;28;20053;-80
2024/01/08 01:25:55;;;;;;;8.27;5.43;;;-2.60;99.90;;;;;;4976990;28;20041;-78
2024/01/08 01:28:22;;;;;;;7.93;5.13;;;-2.60;99.90;;;;;;4976700;28;20053;-79
2024/01/08 01:30:48;;;;;;;8.23;5.03;;;-2.60;99.90;;;;;;4992958;28;20034;-79
2024/01/08 01:33:14;;;;;;;8.43;4.77;;;-2.70;99.90;;;;;;4976843;28;20633;-76
2024/01/08 01:35:41;;;;;;;9.33;6.00;;;-2.70;99.90;;;;;;4976702;28;20049;-79
2024/01/08 01:38:07;;;;;;;8.50;5.30;;;-2.70;99.90;;;;;;4992815;28;20053;-81
2024/01/08 01:40:33;;;;;;;9.13;6.33;;;-2.70;99.90;;;;;;4972976;28;20038;-79
2024/01/08 01:43:00;;;;;;;11.80;6.33;;;-2.80;99.90;;;;;;4974957;28;21514;-74
2024/01/08 01:45:26;;;;;;;10.13;6.13;;;-2.80;99.90;;;;;;4957583;28;20041;-79
2024/01/08 01:47:54;;;;;;;9.47;5.70;;;-2.80;99.90;;;;;;4973589;28;20030;-82
2024/01/08 01:50:22;;;;;;;9.70;5.83;;;-2.80;99.90;;;;;;4958202;28;20052;-81
2024/01/08 01:52:50;;;;;;;7.77;6.03;;;-2.80;99.90;;;;;;4974360;28;20405;-79
2024/01/08 01:55:17;;;;;;;8.43;5.77;;;-2.80;99.90;;;;;;4973155;28;20449;-82
2024/01/08 01:57:45;;;;;;;9.43;5.57;;;-2.80;99.90;;;;;;4973774;28;20061;-77
2024/01/08 02:00:13;;;;;;;8.87;5.97;;;-2.90;99.90;;;;;;4973750;28;20027;-78
2024/01/08 02:02:41;;;;;;;8.73;5.87;;;-2.90;99.90;;;;;;4975311;28;20037;-80
2024/01/08 02:05:11;;;;;;;8.73;5.77;;;-2.90;99.90;;;;;;4973667;28;20042;-80
2024/01/08 02:07:39;;;;;;;8.07;5.30;;;-2.90;99.90;;;;;;4958766;28;20898;-82
2024/01/08 02:10:06;;;;;;;10.77;6.80;;;-2.90;99.90;;;;;;4976434;28;20026;-80
2024/01/08 02:12:33;;;;;;;10.70;6.40;;;-2.90;99.90;;;;;;4942680;28;20037;-82
2024/01/08 02:15:02;;;;;;;9.20;5.50;;;-3.00;99.90;;;;;;4974313;28;20338;-82
2024/01/08 02:17:28;;;;;;;10.93;5.83;;;-2.90;99.90;;;;;;4973573;28;20042;-82
2024/01/08 02:19:55;;;;;;;9.33;5.90;;;-3.00;99.90;;;;;;4975697;28;20026;-83
2024/01/08 02:22:21;;;;;;;7.53;5.07;;;-3.00;99.90;;;;;;4974625;28;20037;-81
2024/01/08 02:24:48;;;;;;;10.43;5.83;;;-3.00;99.90;;;;;;4973098;28;20057;-74
2024/01/08 02:27:14;;;;;;;10.53;6.47;;;-3.00;99.90;;;;;;4958013;28;20047;-81
2024/01/08 02:29:41;;;;;;;9.87;6.23;;;-3.00;99.90;;;;;;4958182;28;20037;-80
2024/01/08 02:32:07;;;;;;;10.33;5.80;;;-3.00;99.90;;;;;;4975567;28;20042;-78
2024/01/08 02:34:33;;;;;;;9.57;6.33;;;-3.00;99.90;;;;;;4974272;28;20030;-84
2024/01/08 02:37:00;;;;;;;10.87;6.07;;;-3.10;99.90;;;;;;4974753;28;20042;-76
2024/01/08 02:39:26;;;;;;;9.00;5.73;;;-3.10;99.90;;;;;;4976498;28;20046;-80
2024/01/08 02:41:52;;;;;;;10.30;6.37;;;-3.10;99.90;;;;;;4957602;28;20505;-80
2024/01/08 02:44:19;;;;;;;9.67;5.97;;;-3.10;99.90;;;;;;4960779;28;20042;-83
2024/01/08 02:46:45;;;;;;;10.57;5.97;;;-3.10;99.90;;;;;;4975793;28;20022;-84
2024/01/08 02:49:12;;;;;;;11.70;6.53;;;-3.00;99.90;;;;;;4974795;28;20126;-80
2024/01/08 02:51:38;;;;;;;10.90;5.97;;;-3.00;99.90;;;;;;4975159;28;20042;-84
2024/01/08 02:54:04;;;;;;;10.73;5.83;;;-2.90;99.90;;;;;;4975659;28;20038;-80
2024/01/08 02:56:31;;;;;;;11.40;6.27;;;-2.90;99.90;;;;;;4956945;28;20034;-81
2024/01/08 02:58:57;;;;;;;9.13;5.97;;;-2.90;99.90;;;;;;4958076;28;20030;-83
2024/01/08 03:01:24;;;;;;;10.13;5.70;;;-2.90;99.90;;;;;;4957792;28;20054;-80
2024/01/08 03:03:50;;;;;;;9.60;6.30;;;-2.80;99.90;;;;;;4979796;28;20049;-83
2024/01/08 03:06:16;;;;;;;10.97;6.37;;;-2.70;99.90;;;;;;4949824;28;20042;-78
2024/01/08 03:08:42;;;;;;;9.00;6.13;;;-2.70;99.90;;;;;;4976216;28;20700;-77
2024/01/08 03:11:09;;;;;;;9.63;6.40;;;-2.60;99.90;;;;;;4976551;28;20065;-80
2024/01/08 03:13:35;;;;;;;10.73;6.10;;;-2.60;99.90;;;;;;4975268;28;20034;-79
2024/01/08 03:16:02;;;;;;;9.30;6.23;;;-2.60;99.90;;;;;;4976763;28;20772;-81
2024/01/08 03:18:28;;;;;;;9.23;5.23;;;-2.50;99.90;;;;;;4976530;28;20035;-81
2024/01/08 03:20:54;;;;;;;9.53;5.83;;;-2.50;99.90;;;;;;4974986;28;20026;-80
2024/01/08 03:23:20;;;;;;;9.87;5.77;;;-2.50;99.90;;;;;;4958494;28;20038;-84
2024/01/08 03:25:47;;;;;;;10.53;6.70;;;-2.40;99.90;;;;;;4974587;28;20547;-81
2024/01/08 03:28:13;;;;;;;11.13;6.30;;;-2.40;99.90;;;;;;4976238;28;20046;-84
2024/01/08 03:30:40;;;;;;;7.93;5.23;;;-2.40;99.90;;;;;;4975472;28;20496;-81
2024/01/08 03:33:06;;;;;;;9.30;5.67;;;-2.30;99.90;;;;;;4975018;28;20042;-80
2024/01/08 03:35:32;;;;;;;10.00;6.00;;;-2.30;99.90;;;;;;4976557;28;20026;-73
2024/01/08 03:37:59;;;;;;;10.27;6.40;;;-2.20;99.90;;;;;;4975476;28;20038;-82
2024/01/08 03:40:25;;;;;;;10.10;5.57;;;-2.20;99.90;;;;;;4975069;28;20042;-83
2024/01/08 03:42:51;;;;;;;8.03;5.10;;;-2.10;99.90;;;;;;4959001;28;20058;-83
2024/01/08 03:45:17;;;;;;;8.33;5.33;;;-2.10;99.90;;;;;;4975078;28;20484;-80
2024/01/08 03:47:44;;;;;;;9.37;5.70;;;-2.00;99.90;;;;;;4959980;28;20047;-80
2024/01/08 03:50:11;;;;;;;9.23;5.37;;;-2.00;99.90;;;;;;4972261;28;22518;-80
2024/01/08 03:52:37;;;;;;;10.10;6.43;;;-2.00;99.90;;;;;;4974075;28;20038;-76
2024/01/08 03:55:04;;;;;;;14.03;6.13;;;-2.00;99.90;;;;;;4974191;28;20038;-80
2024/01/08 03:57:30;;;;;;;10.37;5.93;;;-2.00;99.90;;;;;;4973889;28;20034;-79
2024/01/08 03:59:57;;;;;;;12.40;6.47;;;-2.00;99.90;;;;;;4971811;28;20034;-78
2024/01/08 04:02:23;;;;;;;11.67;6.90;;;-2.00;99.90;;;;;;4973593;28;20046;-81
2024/01/08 04:04:49;;;;;;;11.27;6.80;;;-1.90;99.90;;;;;;4973768;28;20034;-82
2024/01/08 04:07:15;;;;;;;9.90;6.30;;;-1.90;99.90;;;;;;4974781;28;20031;-82
2024/01/08 04:09:42;;;;;;;11.30;6.37;;;-1.90;99.90;;;;;;4975084;28;20045;-80
2024/01/08 04:12:09;;;;;;;11.00;6.27;;;-1.90;99.90;;;;;;4973113;28;20049;-77
2024/01/08 04:14:35;;;;;;;13.53;6.80;;;-1.90;99.90;;;;;;4971827;28;20046;-82
2024/01/08 04:17:02;;;;;;;12.03;6.93;;;-1.80;99.90;;;;;;4972481;28;20389;-72
2024/01/08 04:19:28;;;;;;;9.97;6.27;;;-1.80;99.90;;;;;;4990261;28;20477;-81
2024/01/08 04:21:54;;;;;;;10.70;6.50;;;-1.80;99.90;;;;;;4975149;28;20041;-73
2024/01/08 04:24:20;;;;;;;11.83;6.17;;;-1.80;99.90;;;;;;4956187;28;20038;-81
2024/01/08 04:26:47;;;;;;;10.00;7.37;;;-1.80;99.90;;;;;;4957982;28;20054;-74
2024/01/08 04:29:13;;;;;;;11.73;7.37;;;-1.80;99.90;;;;;;4977037;28;20039;-78
2024/01/08 04:31:40;;;;;;;13.03;8.50;;;-1.80;99.90;;;;;;4978149;28;20061;-82
2024/01/08 04:34:06;;;;;;;12.23;7.23;;;-1.80;99.90;;;;;;4961857;28;20034;-73
2024/01/08 04:36:32;;;;;;;11.00;6.97;;;-1.70;99.90;;;;;;4978559;28;20576;-81
2024/01/08 04:38:58;;;;;;;12.40;7.63;;;-1.70;99.90;;;;;;4960956;28;20046;-78
2024/01/08 04:41:25;;;;;;;13.87;7.83;;;-1.70;99.90;;;;;;4976581;28;20038;-82
2024/01/08 04:43:51;;;;;;;10.67;7.70;;;-1.70;99.90;;;;;;4979771;28;20031;-80
2024/01/08 04:46:17;;;;;;;13.57;7.53;;;-1.70;99.90;;;;;;4978213;28;20034;-79
2024/01/08 04:48:44;;;;;;;14.23;7.57;;;-1.70;99.90;;;;;;4977463;28;20046;-78
2024/01/08 04:51:23;;;;;;;11.37;6.87;;;-1.70;99.90;;;;;;4959865;28;20042;-80
2024/01/08 04:53:50;;;;;;;10.53;7.13;;;-1.70;99.90;;;;;;4962613;28;20049;-77
2024/01/08 04:56:23;;;;;;;14.73;8.27;;;-1.70;99.90;;;;;;4980370;28;20072;-80
2024/01/08 04:58:52;;;;;;;15.87;7.77;;;-1.70;99.90;;;;;;4977103;28;20512;-77
2024/01/08 05:01:19;;;;;;;13.93;7.97;;;-1.70;99.90;;;;;;4961356;28;20042;-73
2024/01/08 05:03:45;;;;;;;14.30;8.50;;;-1.70;99.90;;;;;;4978320;28;20117;-75
2024/01/08 05:06:13;;;;;;;12.23;7.73;;;-1.70;99.90;;;;;;4962111;28;20042;-77
2024/01/08 05:08:39;;;;;;;16.13;8.60;;;-1.60;99.90;;;;;;4958518;28;20049;-78
2024/01/08 05:11:06;;;;;;;14.63;7.50;;;-1.60;99.90;;;;;;4974807;28;20497;-75
2024/01/08 05:13:34;;;;;;;16.43;8.63;;;-1.60;99.90;;;;;;4993723;28;20508;-82
2024/01/08 05:16:03;;;;;;;13.73;8.20;;;-1.60;99.90;;;;;;4960883;28;20041;-80
2024/01/08 05:18:30;;;;;;;11.50;7.63;;;-1.60;99.90;;;;;;4960484;28;20034;-83
2024/01/08 05:20:56;;;;;;;13.10;7.97;;;-1.60;99.90;;;;;;4959172;28;20038;-80
2024/01/08 05:23:22;;;;;;;15.37;8.90;;;-1.60;99.90;;;;;;4959797;28;20030;-79
2024/01/08 05:25:49;;;;;;;13.97;8.47;;;-1.60;99.90;;;;;;4958824;28;20038;-79
2024/01/08 05:28:16;;;;;;;12.57;7.87;;;-1.50;99.90;;;;;;4975645;28;20054;-81
2024/01/08 05:30:42;;;;;;;15.13;8.90;;;-1.50;99.90;;;;;;4975833;28;20062;-82
2024/01/08 05:33:09;;;;;;;15.57;9.50;;;-1.50;99.90;;;;;;4975335;28;20126;-83
2024/01/08 05:35:36;;;;;;;14.67;9.10;;;-1.50;99.90;;;;;;4961010;28;20035;-75
2024/01/08 05:38:02;;;;;;;14.23;9.37;;;-1.50;99.90;;;;;;4976683;28;20034;-82
2024/01/08 05:40:28;;;;;;;13.47;9.03;;;-1.50;99.90;;;;;;4976734;28;20409;-78
2024/01/08 05:42:55;;;;;;;13.13;8.00;;;-1.50;99.90;;;;;;4975439;28;20026;-79
2024/01/08 05:45:21;;;;;;;14.70;9.00;;;-1.50;99.90;;;;;;4960345;28;20061;-75
2024/01/08 05:47:48;;;;;;;15.60;9.63;;;-1.40;99.90;;;;;;4974486;28;20118;-78
2024/01/08 05:50:16;;;;;;;14.43;8.90;;;-1.40;99.90;;;;;;4973713;28;20038;-79
2024/01/08 05:52:43;;;;;;;14.53;8.10;;;-1.50;99.90;;;;;;4975527;28;20115;-75
2024/01/08 05:55:14;;;;;;;12.50;8.00;;;-1.40;99.90;;;;;;4959729;28;20038;-76
2024/01/08 05:57:40;;;;;;;14.00;9.00;;;-1.40;99.90;;;;;;4975304;28;20037;-77
2024/01/08 06:00:07;;;;;;;15.97;9.20;;;-1.40;99.90;;;;;;4978036;28;20038;-78
2024/01/08 06:02:33;;;;;;;16.47;8.77;;;-1.40;99.90;;;;;;4976679;28;20587;-80
2024/01/08 06:05:00;;;;;;;15.93;8.73;;;-1.40;99.90;;;;;;4975993;28;20038;-79
2024/01/08 06:07:26;;;;;;;14.90;8.90;;;-1.40;99.90;;;;;;4973730;28;20034;-77
2024/01/08 06:09:53;;;;;;;16.13;9.37;;;-1.40;99.90;;;;;;4959078;28;20078;-75
2024/01/08 06:12:19;;;;;;;15.47;9.00;;;-1.40;99.90;;;;;;4972147;28;20050;-77
2024/01/08 06:14:47;;;;;;;11.67;7.87;;;-1.40;99.90;;;;;;4942524;28;20038;-80
2024/01/08 06:17:13;;;;;;;15.07;9.33;;;-1.30;99.90;;;;;;4955233;28;20038;-76
2024/01/08 06:19:40;;;;;;;15.20;9.17;;;-1.30;99.90;;;;;;4972530;28;20042;-75
2024/01/08 06:22:07;;;;;;;12.03;7.33;;;-1.30;99.90;;;;;;4972122;28;20057;-79
2024/01/08 06:24:33;;;;;;;14.50;9.57;;;-1.30;99.90;;;;;;4957293;28;20477;-79
2024/01/08 06:26:59;;;;;;;12.70;8.80;;;-1.30;99.90;;;;;;4976994;28;20818;-76
2024/01/08 06:29:25;;;;;;;14.27;8.83;;;-1.30;99.90;;;;;;4970981;28;20838;-76
2024/01/08 06:31:52;;;;;;;15.63;9.07;;;-1.20;99.90;;;;;;4956497;28;20046;-75
2024/01/08 06:34:18;;;;;;;13.70;8.47;;;-1.20;99.90;;;;;;4988450;28;20489;-76
2024/01/08 06:36:45;;;;;;;13.87;8.20;;;-1.20;99.90;;;;;;4958341;28;20030;-77
2024/01/08 06:39:11;;;;;;;15.57;8.93;;;-1.20;99.90;;;;;;4970031;28;20031;-76
2024/01/08 06:41:38;;;;;;;12.10;8.17;;;-1.20;99.90;;;;;;4987145;28;20045;-78
2024/01/08 06:44:05;;;;;;;13.60;8.10;;;-1.20;99.90;;;;;;4990044;28;20030;-76
2024/01/08 06:46:31;;;;;;;12.53;8.47;;;-1.20;99.90;;;;;;4975957;28;20038;-79
2024/01/08 06:48:57;;;;;;;12.20;7.43;;;-1.10;99.90;;;;;;4973737;28;20045;-73
2024/01/08 06:51:24;;;;;;;14.80;8.20;;;-1.20;99.90;;;;;;4974898;28;20038;-78
2024/01/08 06:53:50;;;;;;;14.53;8.40;;;-1.20;99.90;;;;;;4979189;28;20042;-77
2024/01/08 06:56:16;;;;;;;15.17;7.80;;;-1.10;99.90;;;;;;4958788;28;20027;-77
2024/01/08 06:58:43;;;;;;;11.97;7.57;;;-1.10;99.90;;;;;;4975103;28;20398;-78
2024/01/08 07:01:09;;;;;;;13.40;7.70;;;-1.10;99.90;;;;;;4973796;28;20050;-75
2024/01/08 07:03:36;;;;;;;15.37;8.00;;;-1.10;99.90;;;;;;4973834;28;20452;-78
2024/01/08 07:06:02;;;;;;;11.30;6.90;;;-1.10;99.90;;;;;;4975381;28;20051;-76
2024/01/08 07:08:29;;;;;;;11.53;7.47;;;-1.10;99.90;;;;;;4954997;28;20061;-75
2024/01/08 07:10:55;;;;;;;12.13;7.40;;;-1.10;99.90;;;;;;4973441;28;20048;-79
2024/01/08 07:13:21;;;;;;;11.90;7.73;;;-1.10;99.90;;;;;;4973739;28;20381;-77
2024/01/08 07:15:48;;;;;;;11.00;7.00;;;-1.10;99.90;;;;;;4971670;28;20049;-75
2024/01/08 07:18:16;;;;;;;12.27;7.03;;;-1.10;99.90;;;;;;4974287;28;20034;-77
2024/01/08 07:20:43;;;;;;;10.93;6.57;;;-1.10;99.90;;;;;;4959393;28;20575;-74
2024/01/08 07:23:11;;;;;;;12.07;6.87;;;-1.10;99.90;;;;;;4972424;28;20042;-75
2024/01/08 07:25:38;;;;;;;9.80;6.53;;;-1.10;99.90;;;;;;4991486;28;20369;-76
2024/01/08 07:28:09;;;;;;;11.63;6.60;;;-1.10;99.90;;;;;;4974215;28;20492;-77
2024/01/08 07:30:36;;;;;;;11.17;6.47;;;-1.10;99.90;;;;;;4986718;28;20030;-76
2024/01/08 07:33:03;;;;;;;12.90;7.47;;;-1.10;99.90;;;;;;4973230;28;20445;-79
2024/01/08 07:35:29;;;;;;;10.27;7.03;;;-1.10;99.90;;;;;;4953890;28;20047;-78
2024/01/08 07:37:55;;;;;;;10.53;6.57;;;-1.10;99.90;;;;;;4972245;28;20038;-76
2024/01/08 07:40:24;;;;;;;9.10;6.37;;;-1.10;99.90;;;;;;4975204;28;20449;-75
2024/01/08 07:42:56;;;;;;;11.23;6.97;;;-1.10;99.90;;;;;;4954299;28;20030;-75
2024/01/08 07:45:23;;;;;;;9.93;6.13;;;-1.10;99.90;;;;;;4938769;28;20038;-79
2024/01/08 07:47:50;;;;;;;10.43;6.73;;;-1.10;99.90;;;;;;4970811;28;20045;-75
2024/01/08 07:50:17;;;;;;;11.27;6.57;;;-1.10;99.90;;;;;;4974674;28;20042;-75
2024/01/08 07:52:43;;;;;;;10.40;5.93;;;-1.10;99.90;;;;;;4976439;28;20041;-76
2024/01/08 07:55:10;;;;;;;8.70;6.00;;;-1.00;99.90;;;;;;4975252;28;20034;-80
2024/01/08 07:57:36;;;;;;;10.50;7.00;;;-1.10;99.90;;;;;;4976568;28;20446;-79
2024/01/08 08:00:06;;;;;;;10.23;6.13;;;-1.00;99.90;;;;;;4956528;28;20038;-77
2024/01/08 08:02:33;;;;;;;10.57;6.43;;;-1.00;99.90;;;;;;4941500;28;20038;-79
2024/01/08 08:05:00;;;;;;;9.47;6.43;;;-1.00;99.90;;;;;;4978205;28;20042;-77
2024/01/08 08:07:28;;;;;;;10.43;6.43;;;-1.00;99.90;;;;;;4964107;28;20046;-74
2024/01/08 08:09:55;;;;;;;9.63;6.77;;;-1.00;99.90;;;;;;4961334;28;20042;-77
2024/01/08 08:12:21;;;;;;;9.97;6.83;;;-1.10;99.90;;;;;;4994082;28;20410;-78
2024/01/08 08:14:48;;;;;;;12.13;6.70;;;-1.00;99.90;;;;;;4961190;28;20037;-77
2024/01/08 08:17:18;;;;;;;11.13;6.63;;;-1.00;99.90;;;;;;4962443;28;20070;-73
2024/01/08 08:19:44;;;;;;;10.27;6.37;;;-1.00;99.90;;;;;;4976563;28;20033;-75
2024/01/08 08:22:11;;;;;;;12.33;6.87;;;-1.00;99.90;;;;;;4976044;28;20510;-78
2024/01/08 08:24:41;;;;;;;10.27;6.63;;;-1.00;99.90;;;;;;4978423;28;20034;-78
2024/01/08 08:27:11;;;;;;;10.83;6.87;;;-1.00;99.90;;;;;;4974522;28;20474;-75
2024/01/08 08:29:38;;;;;;;12.07;6.83;;;-1.00;99.90;;;;;;4977949;28;20049;-77
2024/01/08 08:32:05;;;;;;;10.80;6.83;;;-0.90;99.90;;;;;;4976749;28;20061;-78
2024/01/08 08:34:32;;;;;;;10.97;7.37;;;-0.90;99.90;;;;;;4976103;28;20034;-77
2024/01/08 08:36:58;;;;;;;12.37;7.23;;;-0.90;99.90;;;;;;4977232;28;20033;-79
2024/01/08 08:39:24;;;;;;;11.50;7.17;;;-0.90;99.90;;;;;;4961864;28;20041;-78
2024/01/08 08:41:51;;;;;;;10.47;6.80;;;-0.90;99.90;;;;;;4979002;28;20508;-75
2024/01/08 08:44:17;;;;;;;10.87;7.07;;;-0.80;99.90;;;;;;4979045;28;20525;-78
2024/01/08 08:46:44;;;;;;;11.33;7.53;;;-0.80;99.90;;;;;;4978151;28;20038;-78
2024/01/08 08:49:12;;;;;;;12.27;8.07;;;-0.80;99.90;;;;;;4978255;28;20604;-79
2024/01/08 08:51:38;;;;;;;12.50;8.10;;;-0.80;99.90;;;;;;4993181;28;20041;-78
2024/01/08 08:54:06;;;;;;;12.27;8.23;;;-0.80;99.90;;;;;;4976319;28;20749;-74
2024/01/08 08:56:33;;;;;;;11.83;8.40;;;-0.90;99.90;;;;;;4961018;28;20341;-76
2024/01/08 08:59:00;;;;;;;11.03;7.30;;;-0.90;99.90;;;;;;4959853;28;20057;-78
2024/01/08 09:01:27;;;;;;;13.47;8.10;;;-0.90;99.90;;;;;;4977124;28;20485;-79
2024/01/08 09:03:54;;;;;;;13.07;8.57;;;-0.90;99.90;;;;;;4959178;28;20042;-78
2024/01/08 09:06:24;;;;;;;11.80;8.00;;;-0.90;99.90;;;;;;4975886;28;20039;-76
2024/01/08 09:08:51;;;;;;;11.30;7.53;;;-1.00;99.90;;;;;;4959648;28;20042;-77
2024/01/08 09:11:18;;;;;;;13.67;8.60;;;-0.90;99.90;;;;;;4976963;28;20136;-77
2024/01/08 09:13:44;;;;;;;13.90;8.50;;;-0.90;99.90;;;;;;4989213;28;20045;-73
2024/01/08 09:16:11;;;;;;;12.53;8.27;;;-0.90;99.90;;;;;;4975520;28;20497;-76
2024/01/08 09:18:38;;;;;;;14.17;9.63;;;-0.90;99.90;;;;;;4957544;28;20607;-73
2024/01/08 09:21:07;;;;;;;13.73;8.57;;;-0.90;99.90;;;;;;4974634;28;20049;-76
2024/01/08 09:23:33;;;;;;;14.63;9.50;;;-0.90;99.90;;;;;;4957804;28;20073;-76
2024/01/08 09:25:59;;;;;;;11.17;7.80;;;-0.90;99.90;;;;;;4941098;28;20049;-76
2024/01/08 09:28:26;;;;;;;10.53;7.73;;;-0.90;99.90;;;;;;4975140;28;20045;-78
2024/01/08 09:30:53;;;;;;;11.80;7.73;;;-0.80;99.90;;;;;;4974039;28;20553;-77
2024/01/08 09:33:19;;;;;;;12.20;7.43;;;-0.80;99.90;;;;;;4959046;28;20041;-77
2024/01/08 09:35:47;;;;;;;12.77;7.77;;;-0.80;99.90;;;;;;4974685;28;20034;-74
2024/01/08 09:38:13;;;;;;;14.20;8.00;;;-0.80;99.90;;;;;;4975109;28;20260;-74
2024/01/08 09:40:43;;;;;;;10.73;7.07;;;-0.70;99.90;;;;;;4974615;28;20034;-78
2024/01/08 09:43:14;;;;;;;10.73;6.93;;;-0.70;99.90;;;;;;4992016;28;20041;-78
2024/01/08 09:46:06;;;;;;;18.57;11.00;;;-0.70;99.90;;;;;;4974357;28;20038;-75
2024/01/08 09:48:36;;;;;;;12.00;7.50;;;-0.60;99.90;;;;;;4972486;28;20057;-74
2024/01/08 09:51:03;;;;;;;8.77;6.67;;;-0.60;99.90;;;;;;4957605;28;20118;-74
2024/01/08 09:53:32;;;;;;;10.50;7.10;;;-0.60;99.90;;;;;;4975806;28;20500;-73
2024/01/08 09:55:59;;;;;;;9.60;7.43;;;-0.60;99.90;;;;;;4970183;28;20030;-74
2024/01/08 09:58:26;;;;;;;11.57;7.63;;;-0.50;99.90;;;;;;4972958;28;20022;-72
2024/01/08 10:00:53;;;;;;;10.87;7.20;;;-0.50;99.90;;;;;;4957938;28;20038;-74
2024/01/08 10:03:20;;;;;;;9.73;6.50;;;-0.50;99.90;;;;;;4990018;28;20573;-73
2024/01/08 10:05:46;;;;;;;9.27;6.47;;;-0.50;99.90;;;;;;4958790;28;20068;-75
2024/01/08 10:08:13;;;;;;;10.70;8.00;;;-0.50;99.90;;;;;;4957257;28;20037;-73
2024/01/08 10:10:39;;;;;;;11.70;5.93;;;-0.40;99.90;;;;;;4974895;28;20034;-73
2024/01/08 10:13:09;;;;;;;11.03;7.37;;;-0.40;99.90;;;;;;4976013;28;20050;-73
2024/01/08 10:15:37;;;;;;;10.90;7.00;;;-0.40;99.90;;;;;;4958449;28;21141;-71
2024/01/08 10:18:08;;;;;;;10.97;6.13;;;-0.40;99.90;;;;;;4973383;28;20031;-73
2024/01/08 10:20:35;;;;;;;8.83;6.50;;;-0.30;99.90;;;;;;4961544;28;20030;-74
2024/01/08 10:23:08;;;;;;;9.67;6.80;;;-0.30;99.90;;;;;;4977665;28;20474;-71
2024/01/08 10:25:36;;;;;;;10.67;7.00;;;-0.30;99.90;;;;;;4977006;28;20281;-75
2024/01/08 10:28:07;;;;;;;8.70;6.10;;;-0.30;99.90;;;;;;4977765;28;20050;-73
2024/01/08 10:30:34;;;;;;;10.93;6.40;;;-0.20;99.90;;;;;;4961700;28;20041;-75
2024/01/08 10:33:00;;;;;;;8.70;5.60;;;-0.20;99.90;;;;;;4976163;28;20042;-72
2024/01/08 10:35:29;;;;;;;9.40;6.80;;;-0.20;99.90;;;;;;4961584;28;20981;-73
2024/01/08 10:37:58;;;;;;;8.17;6.17;;;-0.20;99.90;;;;;;4978349;28;20509;-74
2024/01/08 10:40:29;;;;;;;9.73;5.60;;;-0.20;99.90;;;;;;4977073;28;20454;-75
2024/01/08 10:42:56;;;;;;;7.47;5.27;;;-0.30;99.90;;;;;;4977166;28;20370;-75
2024/01/08 10:45:23;;;;;;;10.93;6.20;;;-0.30;99.90;;;;;;4960798;28;20047;-74
2024/01/08 10:48:17;;;;;;;9.03;5.43;;;-0.30;99.90;;;;;;4961701;28;20049;-73
2024/01/08 10:50:46;;;;;;;9.50;5.60;;;-0.20;99.90;;;;;;4974562;28;20070;-72
2024/01/08 10:53:58;;;;;;;9.57;6.40;;;-0.10;99.90;;;;;;4975247;28;20034;-74
2024/01/08 10:56:28;;;;;;;9.77;5.67;;;0.10;99.90;;;;;;4963777;28;20057;-74
2024/01/08 10:59:04;;;;;;;11.07;5.83;;;0.20;99.90;;;;;;4977348;28;20042;-74
2024/01/08 11:01:34;;;;;;;8.63;5.50;;;0.20;99.90;;;;;;4978263;28;20542;-76
2024/01/08 11:04:05;;;;;;;8.83;5.67;;;0.10;99.90;;;;;;4993862;28;20030;-75
2024/01/08 11:06:38;;;;;;;8.90;5.07;;;0.10;99.90;;;;;;4976056;28;20470;-75
2024/01/08 11:09:15;;;;;;;7.30;5.27;;;0.10;99.90;;;;;;4978108;28;20056;-73
2024/01/08 11:11:43;;;;;;;6.17;4.57;;;0.10;99.90;;;;;;4992684;28;20038;-75
2024/01/08 11:14:13;;;;;;;5.97;4.47;;;0.20;99.90;;;;;;4977203;28;20405;-75
2024/01/08 11:16:40;;;;;;;10.37;5.37;;;0.10;99.90;;;;;;4960847;28;20372;-74
2024/01/08 11:19:19;;;;;;;9.87;4.50;;;0.10;99.90;;;;;;4978498;28;20465;-75
2024/01/08 11:21:48;;;;;;;7.53;4.10;;;0.20;99.90;;;;;;4993382;28;20034;-74
2024/01/08 11:24:15;;;;;;;5.60;3.97;;;0.20;99.90;;;;;;4976502;28;20030;-75
2024/01/08 11:26:47;;;;;;;6.90;4.73;;;0.20;99.90;;;;;;4976506;28;20049;-75
2024/01/08 11:29:15;;;;;;;6.45;4.03;;;0.30;99.90;;;;;;4974575;28;20045;-74
2024/01/08 11:32:03;;;;;;;5.33;3.80;;;0.30;99.90;;;;;;4992219;28;20500;-76
2024/01/08 11:34:32;;;;;;;4.83;3.20;;;0.40;99.90;;;;;;4990938;28;20046;-74
2024/01/08 11:37:27;;;;;;;6.10;3.80;;;0.40;99.90;;;;;;4977514;28;20046;-76
2024/01/08 11:39:54;;;;;;;7.20;3.20;;;0.40;99.90;;;;;;4975163;28;20042;-75
2024/01/08 11:42:22;;;;;;;5.67;3.40;;;0.40;99.90;;;;;;4991361;28;20040;-75
2024/01/08 11:44:51;;;;;;;4.80;2.87;;;0.30;99.90;;;;;;4978563;28;20034;-75
2024/01/08 11:47:18;;;;;;;6.57;2.30;;;0.10;99.90;;;;;;4990712;28;20046;-73
2024/01/08 11:49:45;;;;;;;7.40;2.70;;;0.00;99.90;;;;;;4958686;28;20041;-75
2024/01/08 11:52:12;;;;;;;5.80;2.80;;;-0.10;99.90;;;;;;4958263;28;20051;-75
2024/01/08 11:54:38;;;;;;;3.97;2.90;;;-0.20;99.90;;;;;;4973955;28;20039;-75
2024/01/08 11:57:05;;;;;;;4.87;2.70;;;-0.20;99.90;;;;;;4975921;28;20198;-75
2024/01/08 11:59:36;;;;;;;5.23;2.90;;;-0.20;99.90;;;;;;4960373;28;20037;-76
2024/01/08 12:02:20;;;;;;;3.40;2.20;;;-0.20;99.90;;;;;;4975746;28;20462;-76
2024/01/08 12:04:55;;;;;;;3.83;2.50;;;-0.20;99.90;;;;;;4960657;28;20033;-74
2024/01/08 12:07:23;;;;;;;4.07;2.40;;;-0.20;99.90;;;;;;4959800;28;21930;-74
2024/01/08 12:09:50;;;;;;;3.73;2.37;;;-0.20;99.90;;;;;;4961070;28;20026;-76
2024/01/08 12:12:17;;;;;;;3.93;2.20;;;-0.20;99.90;;;;;;4977250;28;20380;-74
2024/01/08 12:14:48;;;;;;;6.27;3.03;;;-0.10;99.90;;;;;;4959626;28;20053;-76
2024/01/08 12:17:16;;;;;;;4.27;2.87;;;-0.10;99.90;;;;;;4976032;28;20039;-76
2024/01/08 12:19:47;;;;;;;4.60;2.70;;;-0.20;99.90;;;;;;4975847;28;20034;-76
2024/01/08 12:22:14;;;;;;;3.93;2.17;;;-0.20;99.90;;;;;;4975687;28;20034;-76
2024/01/08 12:24:42;;;;;;;4.00;2.50;;;-0.10;99.90;;;;;;4959949;28;20030;-77
2024/01/08 12:27:09;;;;;;;3.10;1.73;;;-0.10;99.90;;;;;;4975435;28;20041;-77
2024/01/08 12:29:39;;;;;;;3.27;2.17;;;-0.10;99.90;;;;;;4975320;28;20038;-78
2024/01/08 12:32:08;;;;;;;5.20;2.90;;;-0.10;99.90;;;;;;4976065;28;20035;-77
2024/01/08 12:34:38;;;;;;;7.07;3.27;;;-0.10;99.90;;;;;;4975608;28;21159;-80
2024/01/08 12:37:07;;;;;;;4.03;2.20;;;-0.10;99.90;;;;;;4957337;28;20142;-74
2024/01/08 12:39:34;;;;;;;2.90;1.60;;;0.00;99.90;;;;;;4958858;28;20041;-75
2024/01/08 12:42:09;;;;;;;3.73;2.10;;;0.00;99.90;;;;;;4976518;28;20038;-75
2024/01/08 12:44:36;;;;;;;4.13;1.63;;;0.00;99.90;;;;;;4976367;28;20489;-78